Mostar, Mostar International Airport (LQMO)

NameMostar International Airport
CityMostar
CountryBosnia and Herzegovina
ICAOLQMO
IATAOMO
Altitude48 m
CoordinatesGoogle Map
Live Air TrafficLiveATC.net
METARLQMO 160900Z 15005KT 120V180 CAVOK 09/M04 Q1029
2019-02-16 09:00:00 Wind: Southeast (150°) 2.57 m/s - Visibility: > 10000 m - Weather: CAVOK - Temperature: 9 °C - Dew point: -4 °C - Humidity: 40% - Pressure: 1029 hPa
Statistics

The table below shows the detailed information of all flights to/from Mostar, Mostar International Airport (LQMO).